createdAt,value
2023-03-06T00:01:11.329Z,-72
2023-03-06T00:03:39.826Z,-73
2023-03-06T00:06:08.907Z,-73
2023-03-06T00:08:37.483Z,-73
2023-03-06T00:11:06.331Z,-73
2023-03-06T00:13:35.176Z,-73
2023-03-06T00:16:03.710Z,-73
2023-03-06T00:18:32.177Z,-72
2023-03-06T00:21:00.712Z,-73
2023-03-06T00:23:29.408Z,-73
2023-03-06T00:25:58.039Z,-72
2023-03-06T00:28:26.591Z,-73
2023-03-06T00:30:55.108Z,-73
2023-03-06T00:33:23.630Z,-73
2023-03-06T00:35:52.102Z,-73
2023-03-06T00:38:20.682Z,-73
2023-03-06T00:40:49.293Z,-73
2023-03-06T00:43:17.891Z,-73
2023-03-06T00:45:46.455Z,-73
2023-03-06T00:48:15.005Z,-72
2023-03-06T00:50:43.465Z,-73
2023-03-06T00:53:13.311Z,-73
2023-03-06T00:55:44.783Z,-73
2023-03-06T00:58:13.535Z,-73
2023-03-06T01:00:42.007Z,-72
2023-03-06T01:03:10.529Z,-73
2023-03-06T01:05:39.468Z,-73
2023-03-06T01:08:08.812Z,-73
2023-03-06T01:10:41.191Z,-73
2023-03-06T01:13:09.734Z,-73
2023-03-06T01:15:38.210Z,-73
2023-03-06T01:18:06.881Z,-73
2023-03-06T01:20:35.345Z,-73
2023-03-06T01:23:03.836Z,-73
2023-03-06T01:25:32.428Z,-73
2023-03-06T01:28:01.023Z,-72
2023-03-06T01:30:29.606Z,-73
2023-03-06T01:32:58.094Z,-73
2023-03-06T01:35:26.566Z,-73
2023-03-06T01:37:55.075Z,-73
2023-03-06T01:40:23.603Z,-73
2023-03-06T01:42:52.317Z,-73
2023-03-06T01:45:20.779Z,-73
2023-03-06T01:47:49.344Z,-73
2023-03-06T01:50:18.042Z,-73
2023-03-06T01:53:00.752Z,-73
2023-03-06T01:55:35.243Z,-73
2023-03-06T01:58:11.255Z,-73
2023-03-06T02:00:39.970Z,-73
2023-03-06T02:03:23.172Z,-73
2023-03-06T02:05:51.873Z,-73
2023-03-06T02:08:23.709Z,-73
2023-03-06T02:11:09.837Z,-73
2023-03-06T02:13:39.610Z,-73
2023-03-06T02:16:09.832Z,-73
2023-03-06T02:18:38.754Z,-73
2023-03-06T02:21:15.116Z,-73
2023-03-06T02:24:13.329Z,-72
2023-03-06T02:26:44.549Z,-73
2023-03-06T02:29:13.250Z,-73
2023-03-06T02:31:41.715Z,-73
2023-03-06T02:34:30.465Z,-73
2023-03-06T02:37:10.288Z,-73
2023-03-06T02:39:44.030Z,-73
2023-03-06T02:42:17.695Z,-73
2023-03-06T02:44:46.170Z,-73
2023-03-06T02:47:14.728Z,-73
2023-03-06T02:49:43.218Z,-72
2023-03-06T02:52:12.020Z,-72
2023-03-06T02:54:40.475Z,-72
2023-03-06T02:57:09.138Z,-73
2023-03-06T02:59:37.685Z,-73
2023-03-06T03:02:06.455Z,-73
2023-03-06T03:04:35.347Z,-72
2023-03-06T03:07:03.856Z,-73
2023-03-06T03:09:36.928Z,-73
2023-03-06T03:12:08.213Z,-73
2023-03-06T03:14:36.769Z,-73
2023-03-06T03:17:05.629Z,-73
2023-03-06T03:19:34.392Z,-73
2023-03-06T03:22:02.960Z,-73
2023-03-06T03:24:31.530Z,-73
2023-03-06T03:27:00.225Z,-73
2023-03-06T03:29:29.039Z,-73
2023-03-06T03:31:57.487Z,-73
2023-03-06T03:34:26.090Z,-73
2023-03-06T03:36:54.505Z,-73
2023-03-06T03:39:22.976Z,-73
2023-03-06T03:41:51.703Z,-73
2023-03-06T03:44:20.270Z,-73
2023-03-06T03:46:48.735Z,-73
2023-03-06T03:49:17.284Z,-73
2023-03-06T03:51:46.040Z,-73
2023-03-06T03:54:14.584Z,-73
2023-03-06T03:56:44.606Z,-73
2023-03-06T03:59:13.243Z,-73
2023-03-06T04:01:41.884Z,-73
2023-03-06T04:04:10.471Z,-73
2023-03-06T04:06:39.025Z,-73
2023-03-06T04:09:07.714Z,-73
2023-03-06T04:11:36.210Z,-73
2023-03-06T04:14:05.512Z,-72
2023-03-06T04:16:33.988Z,-72
2023-03-06T04:19:02.583Z,-72
2023-03-06T04:21:31.050Z,-72
2023-03-06T04:24:00.050Z,-73
2023-03-06T04:26:28.581Z,-73
2023-03-06T04:28:58.575Z,-72
2023-03-06T04:31:27.349Z,-72
2023-03-06T04:33:55.870Z,-72
2023-03-06T04:36:33.982Z,-72
2023-03-06T04:39:03.333Z,-72
2023-03-06T04:41:31.806Z,-72
2023-03-06T04:44:00.486Z,-71
2023-03-06T04:46:29.044Z,-72
2023-03-06T04:48:57.471Z,-72
2023-03-06T04:51:26.135Z,-73
2023-03-06T04:53:54.618Z,-72
2023-03-06T04:56:23.335Z,-72
2023-03-06T04:58:51.809Z,-73
2023-03-06T05:01:20.366Z,-73
2023-03-06T05:03:49.731Z,-73
2023-03-06T05:06:18.230Z,-73
2023-03-06T05:08:46.673Z,-73
2023-03-06T05:11:15.239Z,-70
2023-03-06T05:13:43.713Z,-73
2023-03-06T05:16:12.296Z,-73
2023-03-06T05:18:41.018Z,-73
2023-03-06T05:21:09.755Z,-73
2023-03-06T05:23:39.604Z,-73
2023-03-06T05:26:13.416Z,-73
2023-03-06T05:28:42.652Z,-73
2023-03-06T05:31:11.244Z,-73
2023-03-06T05:33:39.715Z,-73
2023-03-06T05:36:10.426Z,-73
2023-03-06T05:38:38.913Z,-73
2023-03-06T05:41:07.470Z,-73
2023-03-06T05:43:35.853Z,-73
2023-03-06T05:46:08.412Z,-73
2023-03-06T05:48:37.547Z,-73
2023-03-06T05:51:06.833Z,-73
2023-03-06T05:53:35.376Z,-74
2023-03-06T05:56:10.119Z,-74
2023-03-06T05:58:39.156Z,-73
2023-03-06T06:01:17.011Z,-74
2023-03-06T06:03:45.829Z,-73
2023-03-06T06:06:16.028Z,-73
2023-03-06T06:08:44.863Z,-73
2023-03-06T06:11:14.166Z,-73
2023-03-06T06:13:43.077Z,-73
2023-03-06T06:16:16.462Z,-73
2023-03-06T06:18:45.212Z,-73
2023-03-06T06:21:15.853Z,-73
2023-03-06T06:23:44.453Z,-73
2023-03-06T06:26:13.003Z,-73
2023-03-06T06:28:41.513Z,-73
2023-03-06T06:31:12.319Z,-73
2023-03-06T06:33:42.188Z,-73
2023-03-06T06:36:21.375Z,-73
2023-03-06T06:38:50.636Z,-73
2023-03-06T06:41:51.714Z,-73
2023-03-06T06:44:11.292Z,-73
2023-03-06T06:49:28.292Z,-73
2023-03-06T06:51:56.798Z,-73
2023-03-06T06:54:25.267Z,-73
2023-03-06T06:56:53.813Z,-73
2023-03-06T06:59:23.722Z,-71
2023-03-06T07:01:53.403Z,-71
2023-03-06T07:04:22.021Z,-71
2023-03-06T07:06:50.578Z,-71
2023-03-06T07:09:20.107Z,-71
2023-03-06T07:11:48.686Z,-71
2023-03-06T07:14:17.125Z,-71
2023-03-06T07:16:45.623Z,-72
2023-03-06T07:19:14.179Z,-73
2023-03-06T07:21:42.778Z,-73
2023-03-06T07:24:11.305Z,-73
2023-03-06T07:26:40.715Z,-73
2023-03-06T07:29:09.167Z,-73
2023-03-06T07:31:37.846Z,-71
2023-03-06T07:34:06.490Z,-71
2023-03-06T07:36:35.286Z,-71
2023-03-06T07:39:03.809Z,-71
2023-03-06T07:41:32.221Z,-71
2023-03-06T07:44:00.694Z,-71
2023-03-06T07:46:29.402Z,-71
2023-03-06T07:48:58.289Z,-71
2023-03-06T07:51:26.824Z,-71
2023-03-06T07:53:55.273Z,-71
2023-03-06T07:56:23.681Z,-71
2023-03-06T07:58:52.121Z,-71
2023-03-06T08:01:23.609Z,-71
2023-03-06T08:03:52.667Z,-71
2023-03-06T08:06:26.905Z,-71
2023-03-06T08:08:56.545Z,-71
2023-03-06T08:11:28.257Z,-71
2023-03-06T08:13:58.209Z,-72
2023-03-06T08:16:30.064Z,-72
2023-03-06T08:18:58.850Z,-71
2023-03-06T08:21:29.524Z,-71
2023-03-06T08:23:58.396Z,-71
2023-03-06T08:26:31.063Z,-71
2023-03-06T08:29:03.017Z,-74
2023-03-06T08:31:41.158Z,-71
2023-03-06T08:34:14.380Z,-71
2023-03-06T08:36:42.851Z,-74
2023-03-06T08:39:11.322Z,-71
2023-03-06T08:41:40.038Z,-71
2023-03-06T08:44:08.678Z,-71
2023-03-06T08:46:37.316Z,-71
2023-03-06T08:49:06.367Z,-71
2023-03-06T08:51:34.858Z,-71
2023-03-06T08:54:03.302Z,-72
2023-03-06T08:56:35.119Z,-72
2023-03-06T08:59:05.558Z,-71
2023-03-06T09:01:37.752Z,-71
2023-03-06T09:04:09.919Z,-71
2023-03-06T09:06:43.232Z,-71
2023-03-06T09:09:12.500Z,-71
2023-03-06T09:11:41.198Z,-71
2023-03-06T09:14:09.781Z,-73
2023-03-06T09:16:38.336Z,-72
2023-03-06T09:19:07.118Z,-72
2023-03-06T09:21:35.585Z,-72
2023-03-06T09:24:04.150Z,-72
2023-03-06T09:26:45.026Z,-72
2023-03-06T09:29:16.421Z,-72
2023-03-06T09:31:45.388Z,-73
2023-03-06T09:34:13.888Z,-72
2023-03-06T09:36:55.861Z,-73
2023-03-06T09:39:26.290Z,-73
2023-03-06T09:41:55.243Z,-73
2023-03-06T09:44:33.581Z,-72
2023-03-06T09:47:42.680Z,-73
2023-03-06T09:50:30.426Z,-72
2023-03-06T09:53:42.006Z,-73
2023-03-06T09:56:31.870Z,-73
2023-03-06T09:59:28.624Z,-73
2023-03-06T10:02:31.980Z,-73
2023-03-06T10:05:06.702Z,-73
2023-03-06T10:08:20.931Z,-73
2023-03-06T10:11:11.480Z,-73
2023-03-06T10:13:48.200Z,-73
2023-03-06T10:16:29.284Z,-73
2023-03-06T10:19:05.046Z,-73
2023-03-06T10:21:44.551Z,-72
2023-03-06T10:24:36.714Z,-73
2023-03-06T10:27:46.481Z,-73
2023-03-06T10:30:41.483Z,-73
2023-03-06T10:33:31.565Z,-73
2023-03-06T10:36:00.252Z,-73
2023-03-06T10:38:31.295Z,-73
2023-03-06T10:41:14.210Z,-73
2023-03-06T10:43:47.289Z,-73
2023-03-06T10:46:43.001Z,-73
2023-03-06T10:49:26.807Z,-73
2023-03-06T10:51:59.134Z,-73
2023-03-06T10:54:28.809Z,-73
2023-03-06T10:56:57.284Z,-73
2023-03-06T10:59:29.431Z,-73
2023-03-06T11:02:00.187Z,-73
2023-03-06T11:04:33.881Z,-73
2023-03-06T11:07:19.058Z,-73
2023-03-06T11:09:59.168Z,-72
2023-03-06T11:12:44.163Z,-78
2023-03-06T11:15:17.339Z,-78
2023-03-06T11:17:51.309Z,-77
2023-03-06T11:20:52.788Z,-77
2023-03-06T11:23:38.163Z,-77
2023-03-06T11:26:18.102Z,-78
2023-03-06T11:29:14.520Z,-78
2023-03-06T11:32:30.845Z,-77
2023-03-06T11:35:03.239Z,-80
2023-03-06T11:37:38.722Z,-80
2023-03-06T11:40:12.793Z,-80
2023-03-06T11:42:57.563Z,-79
2023-03-06T11:45:38.740Z,-80
2023-03-06T11:48:15.914Z,-80
2023-03-06T11:50:58.627Z,-78
2023-03-06T11:53:36.434Z,-79
2023-03-06T11:56:31.995Z,-79
2023-03-06T11:59:03.158Z,-80
2023-03-06T12:01:39.851Z,-80
2023-03-06T12:05:08.071Z,-80
2023-03-06T12:07:52.565Z,-80
2023-03-06T12:10:32.604Z,-76
2023-03-06T12:13:06.467Z,-78
2023-03-06T12:16:13.851Z,-80
2023-03-06T12:19:12.900Z,-79
2023-03-06T12:22:09.179Z,-79
2023-03-06T12:25:07.838Z,-79
2023-03-06T12:28:17.202Z,-79
2023-03-06T12:31:19.840Z,-78
2023-03-06T12:34:48.366Z,-79
2023-03-06T12:37:42.210Z,-78
2023-03-06T12:41:03.782Z,-77
2023-03-06T12:43:40.338Z,-78
2023-03-06T12:46:17.957Z,-78
2023-03-06T12:49:06.407Z,-78
2023-03-06T12:51:35.423Z,-79
2023-03-06T12:54:04.851Z,-78
2023-03-06T12:56:34.724Z,-78
2023-03-06T12:59:03.561Z,-78
2023-03-06T13:02:23.084Z,-79
2023-03-06T13:05:22.689Z,-78
2023-03-06T13:08:28.273Z,-78
2023-03-06T13:11:32.135Z,-78
2023-03-06T13:14:00.529Z,-79
2023-03-06T13:16:34.900Z,-78
2023-03-06T13:19:22.168Z,-78
2023-03-06T13:21:56.127Z,-79
2023-03-06T13:24:34.390Z,-78
2023-03-06T13:27:11.860Z,-79
2023-03-06T13:29:40.249Z,-78
2023-03-06T13:32:14.527Z,-79
2023-03-06T13:34:49.171Z,-79
2023-03-06T13:37:21.054Z,-79
2023-03-06T13:39:58.438Z,-79
2023-03-06T13:42:36.117Z,-79
2023-03-06T13:45:15.392Z,-78
2023-03-06T13:48:22.532Z,-79
2023-03-06T13:50:52.841Z,-79
2023-03-06T13:53:56.331Z,-79
2023-03-06T13:56:53.298Z,-78
2023-03-06T14:00:08.767Z,-79
2023-03-06T14:02:58.833Z,-79
2023-03-06T14:05:51.399Z,-78
2023-03-06T14:08:30.178Z,-79
2023-03-06T14:11:18.704Z,-78
2023-03-06T14:13:58.909Z,-79
2023-03-06T14:16:49.273Z,-80
2023-03-06T14:19:20.040Z,-79
2023-03-06T14:21:57.729Z,-79
2023-03-06T14:24:43.023Z,-79
2023-03-06T14:27:19.756Z,-78
2023-03-06T14:29:48.840Z,-78
2023-03-06T14:32:23.947Z,-78
2023-03-06T14:34:52.806Z,-79
2023-03-06T14:37:25.118Z,-79
2023-03-06T14:39:56.106Z,-79
2023-03-06T14:42:30.098Z,-81
2023-03-06T14:45:16.600Z,-78
2023-03-06T14:47:51.932Z,-78
2023-03-06T14:50:28.829Z,-78
2023-03-06T14:53:05.649Z,-79
2023-03-06T14:55:36.955Z,-79
2023-03-06T14:58:13.784Z,-78
2023-03-06T15:00:50.640Z,-78
2023-03-06T15:03:41.792Z,-78
2023-03-06T15:06:34.502Z,-79
2023-03-06T15:09:34.449Z,-79
2023-03-06T15:12:26.605Z,-79
2023-03-06T15:15:02.719Z,-78
2023-03-06T15:17:47.906Z,-79
2023-03-06T15:20:37.792Z,-79
2023-03-06T15:23:35.561Z,-79
2023-03-06T15:26:33.373Z,-79
2023-03-06T15:29:10.971Z,-79
2023-03-06T15:31:45.417Z,-79
2023-03-06T15:34:13.804Z,-79
2023-03-06T15:36:55.304Z,-78
2023-03-06T15:39:40.687Z,-78
2023-03-06T15:42:23.602Z,-79
2023-03-06T15:44:55.063Z,-79
2023-03-06T15:47:24.607Z,-79
2023-03-06T15:49:53.761Z,-79
2023-03-06T15:52:23.119Z,-78
2023-03-06T15:54:51.615Z,-79
2023-03-06T15:57:29.175Z,-78
2023-03-06T15:59:59.063Z,-78
2023-03-06T16:02:27.507Z,-78
2023-03-06T16:04:56.245Z,-78
2023-03-06T16:07:24.994Z,-78
2023-03-06T16:09:54.281Z,-78
2023-03-06T16:12:23.721Z,-78
2023-03-06T16:14:52.232Z,-78
2023-03-06T16:17:20.691Z,-79
2023-03-06T16:19:49.252Z,-78
2023-03-06T16:22:17.671Z,-78
2023-03-06T16:24:46.128Z,-78
2023-03-06T16:27:19.982Z,-78
2023-03-06T16:29:48.315Z,-78
2023-03-06T16:32:16.868Z,-78
2023-03-06T16:34:45.245Z,-77
2023-03-06T16:37:14.914Z,-78
2023-03-06T16:39:43.301Z,-78
2023-03-06T16:42:11.703Z,-78
2023-03-06T16:44:40.155Z,-78
2023-03-06T16:47:12.724Z,-77
2023-03-06T16:49:41.262Z,-78
2023-03-06T16:52:12.104Z,-78
2023-03-06T16:54:40.532Z,-78
2023-03-06T16:57:09.952Z,-77
2023-03-06T16:59:38.560Z,-78
2023-03-06T17:02:07.222Z,-78
2023-03-06T17:04:35.628Z,-77
2023-03-06T17:07:04.089Z,-78
2023-03-06T17:09:32.715Z,-79
2023-03-06T17:12:01.380Z,-77
2023-03-06T17:14:29.867Z,-78
2023-03-06T17:16:58.796Z,-77
2023-03-06T17:19:27.225Z,-78
2023-03-06T17:21:55.717Z,-77
2023-03-06T17:24:24.082Z,-78
2023-03-06T17:26:52.596Z,-78
2023-03-06T17:29:21.169Z,-78
2023-03-06T17:31:49.617Z,-78
2023-03-06T17:34:18.043Z,-78
2023-03-06T17:36:46.491Z,-79
2023-03-06T17:39:16.176Z,-78
2023-03-06T17:41:53.405Z,-78
2023-03-06T17:44:30.217Z,-78
2023-03-06T17:47:49.130Z,-78
2023-03-06T18:10:43.449Z,-77
2023-03-06T18:13:36.502Z,-77
2023-03-06T18:16:05.666Z,-77
2023-03-06T18:18:34.748Z,-77
2023-03-06T18:21:12.917Z,-76
2023-03-06T18:23:42.023Z,-77
2023-03-06T18:26:11.894Z,-78
2023-03-06T18:28:47.321Z,-77
2023-03-06T18:31:25.057Z,-76
2023-03-06T18:33:55.716Z,-77
2023-03-06T18:36:26.571Z,-76
2023-03-06T18:38:55.783Z,-76
2023-03-06T18:41:24.516Z,-76
2023-03-06T18:43:55.249Z,-77
2023-03-06T18:46:24.365Z,-77
2023-03-06T18:48:53.230Z,-77
2023-03-06T18:51:21.717Z,-76
2023-03-06T18:53:50.222Z,-76
2023-03-06T18:56:22.933Z,-76
2023-03-06T18:58:51.425Z,-77
2023-03-06T19:01:20.084Z,-77
2023-03-06T19:03:49.093Z,-76
2023-03-06T19:06:18.800Z,-76
2023-03-06T19:08:47.283Z,-76
2023-03-06T19:11:18.431Z,-77
2023-03-06T19:13:46.952Z,-76
2023-03-06T19:16:22.149Z,-77
2023-03-06T19:18:50.715Z,-77
2023-03-06T19:21:23.889Z,-76
2023-03-06T19:23:52.541Z,-76
2023-03-06T19:26:21.049Z,-77
2023-03-06T19:28:50.063Z,-77
2023-03-06T19:31:24.178Z,-76
2023-03-06T19:33:54.070Z,-77
2023-03-06T19:36:26.822Z,-76
2023-03-06T19:38:56.972Z,-77
2023-03-06T19:41:25.414Z,-75
2023-03-06T19:43:58.431Z,-77
2023-03-06T19:46:27.721Z,-77
2023-03-06T19:48:59.087Z,-76
2023-03-06T19:51:28.531Z,-76
2023-03-06T19:53:58.273Z,-76
2023-03-06T19:56:29.063Z,-76
2023-03-06T19:58:57.840Z,-77
2023-03-06T20:01:28.453Z,-76
2023-03-06T20:03:59.186Z,-76
2023-03-06T20:06:31.159Z,-77
2023-03-06T20:08:59.743Z,-77
2023-03-06T20:11:30.967Z,-77
2023-03-06T20:14:01.548Z,-76
2023-03-06T20:16:31.429Z,-77
2023-03-06T20:19:03.220Z,-77
2023-03-06T20:21:37.505Z,-77
2023-03-06T20:24:08.107Z,-77
2023-03-06T20:26:38.099Z,-78
2023-03-06T20:29:06.541Z,-77
2023-03-06T20:31:35.086Z,-77
2023-03-06T20:34:03.915Z,-76
2023-03-06T20:36:36.116Z,-77
2023-03-06T20:39:08.891Z,-78
2023-03-06T20:41:37.871Z,-77
2023-03-06T20:44:09.376Z,-77
2023-03-06T20:46:38.262Z,-77
2023-03-06T20:49:06.718Z,-77
2023-03-06T20:51:39.201Z,-77
2023-03-06T20:54:10.230Z,-77
2023-03-06T20:56:41.167Z,-77
2023-03-06T20:59:19.477Z,-78
2023-03-06T21:01:48.423Z,-77
2023-03-06T21:04:17.396Z,-77
2023-03-06T21:06:47.419Z,-77
2023-03-06T21:09:17.741Z,-77
2023-03-06T21:11:46.309Z,-77
2023-03-06T21:14:14.869Z,-77
2023-03-06T21:16:43.971Z,-77
2023-03-06T21:19:12.628Z,-78
2023-03-06T21:21:41.122Z,-77
2023-03-06T21:24:10.037Z,-77
2023-03-06T21:26:38.581Z,-78
2023-03-06T21:29:07.147Z,-77
2023-03-06T21:31:35.898Z,-78
2023-03-06T21:34:05.547Z,-77
2023-03-06T21:36:34.391Z,-77
2023-03-06T21:39:06.114Z,-77
2023-03-06T21:41:34.805Z,-77
2023-03-06T21:44:05.688Z,-77
2023-03-06T21:46:35.248Z,-77
2023-03-06T21:49:05.697Z,-77
2023-03-06T21:51:34.476Z,-78
2023-03-06T21:54:04.079Z,-77
2023-03-06T21:56:33.511Z,-77
2023-03-06T21:59:02.177Z,-77
2023-03-06T22:01:30.983Z,-77
2023-03-06T22:04:00.097Z,-77
2023-03-06T22:06:30.790Z,-78
2023-03-06T22:09:00.867Z,-77
2023-03-06T22:11:36.801Z,-77
2023-03-06T22:14:07.018Z,-77
2023-03-06T22:16:35.619Z,-77
2023-03-06T22:19:04.172Z,-78
2023-03-06T22:21:32.597Z,-77
2023-03-06T22:24:01.418Z,-76
2023-03-06T22:26:30.791Z,-78
2023-03-06T22:28:59.367Z,-77
2023-03-06T22:31:29.719Z,-78
2023-03-06T22:34:00.801Z,-77
2023-03-06T22:36:31.349Z,-78
2023-03-06T22:39:02.830Z,-77
2023-03-06T22:41:31.725Z,-78
2023-03-06T22:44:01.640Z,-77
2023-03-06T22:46:30.583Z,-77
2023-03-06T22:49:02.250Z,-78
2023-03-06T22:51:31.126Z,-77
2023-03-06T22:53:59.571Z,-76
2023-03-06T22:56:28.579Z,-76
2023-03-06T22:58:57.689Z,-76
2023-03-06T23:01:29.750Z,-76
2023-03-06T23:04:01.506Z,-77
2023-03-06T23:06:39.688Z,-77
2023-03-06T23:09:20.478Z,-77
2023-03-06T23:11:50.141Z,-77
2023-03-06T23:14:20.198Z,-78
2023-03-06T23:16:48.704Z,-79
2023-03-06T23:19:17.303Z,-79
2023-03-06T23:21:45.665Z,-79
2023-03-06T23:24:14.108Z,-79
2023-03-06T23:26:42.496Z,-78
2023-03-06T23:29:10.911Z,-77
2023-03-06T23:31:39.462Z,-79
2023-03-06T23:34:10.777Z,-79
2023-03-06T23:36:39.215Z,-79
2023-03-06T23:39:07.643Z,-79
2023-03-06T23:41:36.083Z,-79
2023-03-06T23:44:04.573Z,-79
2023-03-06T23:46:33.070Z,-79
2023-03-06T23:49:01.657Z,-78
2023-03-06T23:51:30.099Z,-79
2023-03-06T23:54:01.052Z,-79
2023-03-06T23:56:29.898Z,-78
2023-03-06T23:58:58.333Z,-79
